createdAt,value
2018-06-22T00:00:17.154Z,35.00
2018-06-22T00:01:17.174Z,32.90
2018-06-22T00:02:17.318Z,33.50
2018-06-22T00:03:17.203Z,32.80
2018-06-22T00:04:17.217Z,33.70
2018-06-22T00:05:17.260Z,33.10
2018-06-22T00:06:17.246Z,31.00
2018-06-22T00:07:17.365Z,30.20
2018-06-22T00:08:17.294Z,28.30
2018-06-22T00:09:17.303Z,27.20
2018-06-22T00:10:17.320Z,28.20
2018-06-22T00:11:17.322Z,30.00
2018-06-22T00:12:17.464Z,28.50
2018-06-22T00:13:17.354Z,28.10
2018-06-22T00:14:17.392Z,25.30
2018-06-22T00:15:17.378Z,24.20
2018-06-22T00:16:17.413Z,23.80
2018-06-22T00:17:17.542Z,23.30
2018-06-22T00:18:17.453Z,23.00
2018-06-22T00:19:17.439Z,22.00
2018-06-22T00:20:17.481Z,23.10
2018-06-22T00:21:17.482Z,23.00
2018-06-22T00:22:17.644Z,23.10
2018-06-22T00:23:17.497Z,22.50
2018-06-22T00:24:17.521Z,23.30
2018-06-22T00:25:17.556Z,24.00
2018-06-22T00:26:17.571Z,24.80
2018-06-22T00:27:17.689Z,23.60
2018-06-22T00:28:17.603Z,24.40
2018-06-22T00:29:17.611Z,22.90
2018-06-22T00:30:17.628Z,23.90
2018-06-22T00:31:17.640Z,23.00
2018-06-22T00:32:17.791Z,23.00
2018-06-22T00:33:17.670Z,23.90
2018-06-22T00:34:17.661Z,23.00
2018-06-22T00:35:17.704Z,23.50
2018-06-22T00:36:17.694Z,23.10
2018-06-22T00:37:17.804Z,23.40
2018-06-22T00:38:17.745Z,22.80
2018-06-22T00:39:17.744Z,23.00
2018-06-22T00:40:17.746Z,22.60
2018-06-22T00:41:17.791Z,22.40
2018-06-22T00:42:17.777Z,22.30
2018-06-22T00:43:17.956Z,22.70
2018-06-22T00:44:17.807Z,22.40
2018-06-22T00:45:17.831Z,22.00
2018-06-22T00:46:17.860Z,22.80
2018-06-22T00:47:17.853Z,23.30
2018-06-22T00:48:17.967Z,23.60
2018-06-22T00:49:17.882Z,23.90
2018-06-22T00:50:17.892Z,24.30
2018-06-22T00:51:17.908Z,23.40
2018-06-22T00:52:17.924Z,25.40
2018-06-22T00:53:18.061Z,23.80
2018-06-22T00:54:17.963Z,24.30
2018-06-22T00:55:17.967Z,24.00
2018-06-22T00:56:18.006Z,23.70
2018-06-22T00:57:18.024Z,23.30
2018-06-22T00:58:18.111Z,24.30
2018-06-22T00:59:18.040Z,23.80
2018-06-22T01:00:18.073Z,23.60
2018-06-22T01:01:18.056Z,25.00
2018-06-22T01:02:18.075Z,25.30
2018-06-22T01:03:18.187Z,25.40
2018-06-22T01:04:18.097Z,25.70
2018-06-22T01:05:18.115Z,24.60
2018-06-22T01:06:18.134Z,24.90
2018-06-22T01:07:18.147Z,24.80
2018-06-22T01:08:18.323Z,23.90
2018-06-22T01:09:18.194Z,25.00
2018-06-22T01:10:18.184Z,24.70
2018-06-22T01:11:18.198Z,24.60
2018-06-22T01:12:18.243Z,26.50
2018-06-22T01:13:18.359Z,27.80
2018-06-22T01:14:18.260Z,30.60
2018-06-22T01:15:18.265Z,121.10
2018-06-22T01:16:18.303Z,56.50
2018-06-22T01:17:18.284Z,110.80
2018-06-22T01:18:18.408Z,193.80
2018-06-22T01:19:18.341Z,166.00
2018-06-22T01:20:18.343Z,172.10
2018-06-22T01:21:18.351Z,149.80
2018-06-22T01:22:18.391Z,179.30
2018-06-22T01:23:18.507Z,162.10
2018-06-22T01:24:18.393Z,171.00
2018-06-22T01:25:18.431Z,158.30
2018-06-22T01:26:18.419Z,161.10
2018-06-22T01:27:18.460Z,145.70
2018-06-22T01:28:18.598Z,137.80
2018-06-22T01:29:18.493Z,126.50
2018-06-22T01:30:18.478Z,114.10
2018-06-22T01:31:18.497Z,106.70
2018-06-22T01:32:18.536Z,84.80
2018-06-22T01:33:18.700Z,81.00
2018-06-22T01:34:18.546Z,66.90
2018-06-22T01:35:18.558Z,59.60
2018-06-22T01:36:18.592Z,51.40
2018-06-22T01:37:18.606Z,62.30
2018-06-22T01:38:18.711Z,99.60
2018-06-22T01:39:18.612Z,81.20
2018-06-22T01:40:18.653Z,80.70
2018-06-22T01:41:18.656Z,74.40
2018-06-22T01:42:18.682Z,70.90
2018-06-22T01:43:18.850Z,66.20
2018-06-22T01:44:18.687Z,65.00
2018-06-22T01:45:18.699Z,58.20
2018-06-22T01:46:18.739Z,54.70
2018-06-22T01:47:18.739Z,57.90
2018-06-22T01:48:18.769Z,56.40
2018-06-22T01:49:18.937Z,61.20
2018-06-22T01:50:18.781Z,61.80
2018-06-22T01:51:18.803Z,59.20
2018-06-22T01:52:18.802Z,53.30
2018-06-22T01:53:18.845Z,50.20
2018-06-22T01:54:18.957Z,52.90
2018-06-22T01:55:18.852Z,51.70
2018-06-22T01:56:18.888Z,48.30
2018-06-22T01:57:18.880Z,56.90
2018-06-22T01:58:18.887Z,52.60
2018-06-22T01:59:19.086Z,83.50
2018-06-22T02:00:18.925Z,93.00
2018-06-22T02:01:18.945Z,85.80
2018-06-22T02:02:18.971Z,125.50
2018-06-22T02:03:18.966Z,122.20
2018-06-22T02:04:19.134Z,108.60
2018-06-22T02:05:18.998Z,90.20
2018-06-22T02:06:19.038Z,89.10
2018-06-22T02:07:19.050Z,73.80
2018-06-22T02:08:19.047Z,73.90
2018-06-22T02:09:19.211Z,88.00
2018-06-22T02:10:19.083Z,77.30
2018-06-22T02:11:19.111Z,79.40
2018-06-22T02:12:19.126Z,79.50
2018-06-22T02:13:19.128Z,92.20
2018-06-22T02:14:19.240Z,87.10
2018-06-22T02:15:19.167Z,93.80
2018-06-22T02:16:19.185Z,101.70
2018-06-22T02:17:19.167Z,122.10
2018-06-22T02:18:19.213Z,101.30
2018-06-22T02:19:19.324Z,167.80
2018-06-22T02:20:19.248Z,123.00
2018-06-22T02:21:19.232Z,118.70
2018-06-22T02:22:19.244Z,120.00
2018-06-22T02:23:19.344Z,100.60
2018-06-22T02:24:19.461Z,71.10
2018-06-22T02:25:19.357Z,78.20
2018-06-22T02:26:19.354Z,59.50
2018-06-22T02:27:19.369Z,71.10
2018-06-22T02:28:19.384Z,79.10
2018-06-22T02:29:19.605Z,66.70
2018-06-22T02:30:19.417Z,43.70
2018-06-22T02:31:19.453Z,43.20
2018-06-22T02:32:19.424Z,42.50
2018-06-22T02:33:19.440Z,37.10
2018-06-22T02:34:19.596Z,30.60
2018-06-22T02:35:19.471Z,31.80
2018-06-22T02:36:19.453Z,32.10
2018-06-22T02:37:19.468Z,32.20
2018-06-22T02:38:19.478Z,26.20
2018-06-22T02:39:19.604Z,28.60
2018-06-22T02:40:19.517Z,23.40
2018-06-22T02:41:19.527Z,24.00
2018-06-22T02:42:19.565Z,22.40
2018-06-22T02:43:19.581Z,21.50
2018-06-22T02:44:19.710Z,19.60
2018-06-22T02:45:19.589Z,20.30
2018-06-22T02:46:19.624Z,18.20
2018-06-22T02:47:19.616Z,19.40
2018-06-22T02:48:19.629Z,18.30
2018-06-22T02:49:19.796Z,18.30
2018-06-22T02:50:19.654Z,18.50
2018-06-22T02:51:19.674Z,17.60
2018-06-22T02:52:19.720Z,16.20
2018-06-22T02:53:19.730Z,16.80
2018-06-22T02:54:19.741Z,17.40
2018-06-22T02:55:19.886Z,17.90
2018-06-22T02:56:19.744Z,16.20
2018-06-22T02:57:19.763Z,16.90
2018-06-22T02:58:19.772Z,17.60
2018-06-22T02:59:19.789Z,16.60
2018-06-22T03:00:19.932Z,15.70
2018-06-22T03:01:19.822Z,15.90
2018-06-22T03:02:19.834Z,16.30
2018-06-22T03:03:19.880Z,15.60
2018-06-22T03:04:19.867Z,16.10
2018-06-22T03:05:20.030Z,15.30
2018-06-22T03:06:19.921Z,14.60
2018-06-22T03:07:19.933Z,14.30
2018-06-22T03:08:19.949Z,14.80
2018-06-22T03:09:19.962Z,13.70
2018-06-22T03:10:20.074Z,13.50
2018-06-22T03:11:19.970Z,13.50
2018-06-22T03:12:20.007Z,13.90
2018-06-22T03:13:19.996Z,14.40
2018-06-22T03:14:20.035Z,14.50
2018-06-22T03:15:20.124Z,14.30
2018-06-22T03:16:20.042Z,15.90
2018-06-22T03:17:20.061Z,14.10
2018-06-22T03:18:20.092Z,14.50
2018-06-22T03:19:20.111Z,14.90
2018-06-22T03:20:20.225Z,16.30
2018-06-22T03:21:20.140Z,14.80
2018-06-22T03:22:20.150Z,14.80
2018-06-22T03:23:20.165Z,15.20
2018-06-22T03:24:20.157Z,14.90
2018-06-22T03:25:20.320Z,15.20
2018-06-22T03:26:20.185Z,16.30
2018-06-22T03:27:20.203Z,15.20
2018-06-22T03:28:20.207Z,15.60
2018-06-22T03:29:20.227Z,15.30
2018-06-22T03:30:20.345Z,15.00
2018-06-22T03:31:20.283Z,15.40
2018-06-22T03:32:20.272Z,15.50
2018-06-22T03:33:20.285Z,15.60
2018-06-22T03:34:20.306Z,15.60
2018-06-22T03:35:20.414Z,15.60
2018-06-22T03:36:20.341Z,16.20
2018-06-22T03:37:20.343Z,19.30
2018-06-22T03:38:20.361Z,16.50
2018-06-22T03:39:20.381Z,15.70
2018-06-22T03:40:20.538Z,16.60
2018-06-22T03:41:20.397Z,16.60
2018-06-22T03:42:20.413Z,16.90
2018-06-22T03:43:20.441Z,16.10
2018-06-22T03:44:20.437Z,17.80
2018-06-22T03:45:20.580Z,16.70
2018-06-22T03:46:20.466Z,17.00
2018-06-22T03:47:20.491Z,17.10
2018-06-22T03:48:20.508Z,17.40
2018-06-22T03:49:20.509Z,17.80
2018-06-22T03:50:20.622Z,17.40
2018-06-22T03:51:20.568Z,18.20
2018-06-22T03:52:20.553Z,18.00
2018-06-22T03:53:20.568Z,17.90
2018-06-22T03:54:20.581Z,18.90
2018-06-22T03:55:20.700Z,19.10
2018-06-22T03:56:20.613Z,19.80
2018-06-22T03:57:20.621Z,19.90
2018-06-22T03:58:20.635Z,21.30
2018-06-22T03:59:20.654Z,19.60
2018-06-22T04:00:20.814Z,20.20
2018-06-22T04:01:20.675Z,20.60
2018-06-22T04:02:20.688Z,20.90
2018-06-22T04:03:20.731Z,21.30
2018-06-22T04:04:20.717Z,19.80
2018-06-22T04:05:20.756Z,21.00
2018-06-22T04:06:20.917Z,20.20
2018-06-22T04:07:20.786Z,20.90
2018-06-22T04:08:20.796Z,20.90
2018-06-22T04:09:20.814Z,21.50
2018-06-22T04:10:20.806Z,21.30
2018-06-22T04:11:20.960Z,22.10
2018-06-22T04:12:20.829Z,30.90
2018-06-22T04:13:20.841Z,28.10
2018-06-22T04:14:20.851Z,20.30
2018-06-22T04:15:20.898Z,23.30
2018-06-22T04:16:20.996Z,24.00
2018-06-22T04:17:20.907Z,51.80
2018-06-22T04:18:20.933Z,66.80
2018-06-22T04:19:20.947Z,57.50
2018-06-22T04:20:20.950Z,51.20
2018-06-22T04:21:21.043Z,60.60
2018-06-22T04:22:20.958Z,63.40
2018-06-22T04:23:21.002Z,44.30
2018-06-22T04:24:21.057Z,62.30
2018-06-22T04:25:21.024Z,79.00
2018-06-22T04:26:21.193Z,67.50
2018-06-22T04:27:21.026Z,67.80
2018-06-22T04:28:21.068Z,67.80
2018-06-22T04:29:21.079Z,65.00
2018-06-22T04:30:21.070Z,61.50
2018-06-22T04:31:21.205Z,64.00
2018-06-22T04:32:21.123Z,38.20
2018-06-22T04:33:21.114Z,47.40
2018-06-22T04:34:21.121Z,60.80
2018-06-22T04:35:21.137Z,61.60
2018-06-22T04:36:21.300Z,62.10
2018-06-22T04:37:21.162Z,63.60
2018-06-22T04:38:21.180Z,59.50
2018-06-22T04:39:21.192Z,62.40
2018-06-22T04:40:21.211Z,34.60
2018-06-22T04:41:21.320Z,28.80
2018-06-22T04:42:21.238Z,30.00
2018-06-22T04:43:21.244Z,37.10
2018-06-22T04:44:21.282Z,36.20
2018-06-22T04:45:21.294Z,40.60
2018-06-22T04:46:21.430Z,47.90
2018-06-22T04:47:21.328Z,54.20
2018-06-22T04:48:21.335Z,58.10
2018-06-22T04:49:21.321Z,54.70
2018-06-22T04:50:21.362Z,51.30
2018-06-22T04:51:21.502Z,46.20
2018-06-22T04:52:21.395Z,46.30
2018-06-22T04:53:21.407Z,48.50
2018-06-22T04:54:21.388Z,42.70
2018-06-22T04:55:21.426Z,38.30
2018-06-22T04:56:21.584Z,36.00
2018-06-22T04:57:21.429Z,32.40
2018-06-22T04:58:21.469Z,31.90
2018-06-22T04:59:21.457Z,38.20
2018-06-22T05:00:21.481Z,44.60
2018-06-22T05:01:21.584Z,44.60
2018-06-22T05:02:21.499Z,42.90
2018-06-22T05:03:21.511Z,36.30
2018-06-22T05:04:21.549Z,39.60
2018-06-22T05:05:21.534Z,37.30
2018-06-22T05:06:21.646Z,38.80
2018-06-22T05:07:21.564Z,40.60
2018-06-22T05:08:21.599Z,36.00
2018-06-22T05:09:21.604Z,36.60
2018-06-22T05:10:21.618Z,35.00
2018-06-22T05:11:21.743Z,28.70
2018-06-22T05:12:21.664Z,23.60
2018-06-22T05:13:21.640Z,30.90
2018-06-22T05:14:21.663Z,29.50
2018-06-22T05:15:21.665Z,31.00
2018-06-22T05:16:21.784Z,28.20
2018-06-22T05:17:21.692Z,19.60
2018-06-22T05:18:21.730Z,26.60
2018-06-22T05:19:21.722Z,20.30
2018-06-22T05:20:21.764Z,18.90
2018-06-22T05:21:21.858Z,16.60
2018-06-22T05:22:21.756Z,23.60
2018-06-22T05:23:21.775Z,21.90
2018-06-22T05:24:21.795Z,22.20
2018-06-22T05:25:21.805Z,22.80
2018-06-22T05:26:21.919Z,23.70
2018-06-22T05:27:21.824Z,23.10
2018-06-22T05:28:21.847Z,24.00
2018-06-22T05:29:21.845Z,21.70
2018-06-22T05:30:21.917Z,21.40
2018-06-22T05:31:22.001Z,21.20
2018-06-22T05:32:21.888Z,21.10
2018-06-22T05:33:21.916Z,22.10
2018-06-22T05:34:21.918Z,21.20
2018-06-22T05:35:21.958Z,22.60
2018-06-22T05:36:22.073Z,25.10
2018-06-22T05:37:21.956Z,23.50
2018-06-22T05:38:21.995Z,22.70
2018-06-22T05:39:21.981Z,23.20
2018-06-22T05:40:21.990Z,23.50
2018-06-22T05:41:22.203Z,24.00
2018-06-22T05:42:22.020Z,23.40
2018-06-22T05:43:22.060Z,23.50
2018-06-22T05:44:22.071Z,22.70
2018-06-22T05:45:22.068Z,24.00
2018-06-22T05:46:22.176Z,24.00
2018-06-22T05:47:22.094Z,23.80
2018-06-22T05:48:22.106Z,24.00
2018-06-22T05:49:22.107Z,23.30
2018-06-22T05:50:22.152Z,24.80
2018-06-22T05:51:22.308Z,22.50
2018-06-22T05:52:22.176Z,22.50
2018-06-22T05:53:22.189Z,24.50
2018-06-22T05:54:22.199Z,25.10
2018-06-22T05:55:22.209Z,23.80
2018-06-22T05:56:22.329Z,25.70
2018-06-22T05:57:22.213Z,24.80
2018-06-22T05:58:22.229Z,23.80
2018-06-22T05:59:22.243Z,24.70
2018-06-22T06:00:22.276Z,24.10
2018-06-22T06:01:22.363Z,24.90
2018-06-22T06:02:22.273Z,24.30
2018-06-22T06:03:22.311Z,24.50
2018-06-22T06:04:22.301Z,24.50
2018-06-22T06:05:22.339Z,25.00
2018-06-22T06:06:22.499Z,26.10
2018-06-22T06:07:22.350Z,27.00
2018-06-22T06:08:22.360Z,30.20
2018-06-22T06:09:22.387Z,28.90
2018-06-22T06:10:22.374Z,28.00
2018-06-22T06:11:22.513Z,27.40
2018-06-22T06:12:22.431Z,26.70
2018-06-22T06:13:22.417Z,27.50
2018-06-22T06:14:22.457Z,30.00
2018-06-22T06:15:22.448Z,30.60
2018-06-22T06:16:22.554Z,30.40
2018-06-22T06:17:22.491Z,29.70
2018-06-22T06:18:22.478Z,30.50
2018-06-22T06:19:22.516Z,39.50
2018-06-22T06:20:22.500Z,37.20
2018-06-22T06:21:22.614Z,31.70
2018-06-22T06:22:22.524Z,32.90
2018-06-22T06:23:22.536Z,35.50
2018-06-22T06:24:22.549Z,60.30
2018-06-22T06:25:22.576Z,59.70
2018-06-22T06:26:22.699Z,42.40
2018-06-22T06:27:22.733Z,47.30
2018-06-22T06:28:22.598Z,63.60
2018-06-22T06:29:22.640Z,55.40
2018-06-22T06:30:22.636Z,60.00
2018-06-22T06:31:22.827Z,51.40
2018-06-22T06:32:22.676Z,54.30
2018-06-22T06:33:22.663Z,54.70
2018-06-22T06:34:22.676Z,56.20
2018-06-22T06:35:22.685Z,63.70
2018-06-22T06:36:22.707Z,57.10
2018-06-22T06:37:22.813Z,68.70
2018-06-22T06:38:22.746Z,62.60
2018-06-22T06:39:22.754Z,58.10
2018-06-22T06:40:22.754Z,62.10
2018-06-22T06:41:22.759Z,60.50
2018-06-22T06:42:22.922Z,65.10
2018-06-22T06:43:22.809Z,64.70
2018-06-22T06:44:22.797Z,64.80
2018-06-22T06:45:22.816Z,63.60
2018-06-22T06:46:22.821Z,59.10
2018-06-22T06:47:22.938Z,65.00
2018-06-22T06:48:22.866Z,64.10
2018-06-22T06:49:22.859Z,64.20
2018-06-22T06:50:22.898Z,57.80
2018-06-22T06:51:22.882Z,61.70
2018-06-22T06:52:23.024Z,63.70
2018-06-22T06:53:22.903Z,59.30
2018-06-22T06:54:22.923Z,63.50
2018-06-22T06:55:22.932Z,59.90
2018-06-22T06:56:22.943Z,61.50
2018-06-22T06:57:23.056Z,58.50
2018-06-22T06:58:22.993Z,64.30
2018-06-22T06:59:23.009Z,61.00
2018-06-22T07:00:22.993Z,68.10
2018-06-22T07:01:23.008Z,66.60
2018-06-22T07:02:23.200Z,62.40
2018-06-22T07:03:23.029Z,69.20
2018-06-22T07:04:23.045Z,72.80
2018-06-22T07:05:23.080Z,71.10
2018-06-22T07:06:23.096Z,77.80
2018-06-22T07:07:23.231Z,75.30
2018-06-22T07:08:23.141Z,73.90
2018-06-22T07:09:23.128Z,70.60
2018-06-22T07:10:23.114Z,71.50
2018-06-22T07:11:23.126Z,83.30
2018-06-22T07:12:23.393Z,73.20
2018-06-22T07:13:23.155Z,88.50
2018-06-22T07:14:23.248Z,89.20
2018-06-22T07:15:23.183Z,76.10
2018-06-22T07:16:23.196Z,82.60
2018-06-22T07:17:23.327Z,84.70
2018-06-22T07:18:23.228Z,91.60
2018-06-22T07:19:23.227Z,96.90
2018-06-22T07:20:23.240Z,95.80
2018-06-22T07:21:23.265Z,91.80
2018-06-22T07:22:23.412Z,91.30
2018-06-22T07:23:23.310Z,87.00
2018-06-22T07:24:23.296Z,95.50
2018-06-22T07:25:23.299Z,95.40
2018-06-22T07:26:23.335Z,100.80
2018-06-22T07:27:23.452Z,96.00
2018-06-22T07:28:23.343Z,103.00
2018-06-22T07:29:23.349Z,102.70
2018-06-22T07:30:23.386Z,103.60
2018-06-22T07:31:23.383Z,98.70
2018-06-22T07:32:23.487Z,99.70
2018-06-22T07:33:23.399Z,94.70
2018-06-22T07:34:23.410Z,93.00
2018-06-22T07:35:23.433Z,95.10
2018-06-22T07:36:23.435Z,92.60
2018-06-22T07:37:23.624Z,90.60
2018-06-22T07:38:23.468Z,91.30
2018-06-22T07:39:23.499Z,93.00
2018-06-22T07:40:23.499Z,90.50
2018-06-22T07:41:23.523Z,87.70
2018-06-22T07:42:23.684Z,87.30
2018-06-22T07:43:23.517Z,85.70
2018-06-22T07:44:23.537Z,86.00
2018-06-22T07:45:23.569Z,87.30
2018-06-22T07:46:23.582Z,86.30
2018-06-22T07:47:23.666Z,95.00
2018-06-22T07:48:23.581Z,99.50
2018-06-22T07:49:23.594Z,104.20
2018-06-22T07:50:23.629Z,98.60
2018-06-22T07:51:23.615Z,100.30
2018-06-22T07:52:23.782Z,97.00
2018-06-22T07:53:23.640Z,107.20
2018-06-22T07:54:23.660Z,105.10
2018-06-22T07:55:23.692Z,103.60
2018-06-22T07:56:23.706Z,103.70
2018-06-22T07:57:23.844Z,103.40
2018-06-22T07:58:23.729Z,101.80
2018-06-22T07:59:23.740Z,104.40
2018-06-22T08:00:23.732Z,104.30
2018-06-22T08:01:23.767Z,104.60
2018-06-22T08:02:23.852Z,104.40
2018-06-22T08:03:23.789Z,105.00
2018-06-22T08:04:23.786Z,110.10
2018-06-22T08:05:23.816Z,111.90
2018-06-22T08:06:23.797Z,111.70
2018-06-22T08:07:23.910Z,108.70
2018-06-22T08:08:23.850Z,107.20
2018-06-22T08:09:23.860Z,111.50
2018-06-22T08:10:23.849Z,109.10
2018-06-22T08:11:23.858Z,107.10
2018-06-22T08:12:24.024Z,107.50
2018-06-22T08:13:23.885Z,107.80
2018-06-22T08:14:23.902Z,111.20
2018-06-22T08:15:23.910Z,107.90
2018-06-22T08:16:23.952Z,107.40
2018-06-22T08:17:24.035Z,108.40
2018-06-22T08:18:23.971Z,108.60
2018-06-22T08:19:23.981Z,111.80
2018-06-22T08:20:23.970Z,113.30
2018-06-22T08:21:23.979Z,112.30
2018-06-22T08:22:24.090Z,114.30
2018-06-22T08:23:24.030Z,112.60
2018-06-22T08:24:24.043Z,108.50
2018-06-22T08:25:24.057Z,109.40
2018-06-22T08:26:24.039Z,109.90
2018-06-22T08:27:24.200Z,107.70
2018-06-22T08:28:24.076Z,106.70
2018-06-22T08:29:24.103Z,93.30
2018-06-22T08:30:24.096Z,94.90
2018-06-22T08:31:24.099Z,99.00
2018-06-22T08:32:24.266Z,95.40
2018-06-22T08:33:24.140Z,100.60
2018-06-22T08:34:24.140Z,102.80
2018-06-22T08:35:24.180Z,104.40
2018-06-22T08:36:24.160Z,103.60
2018-06-22T08:37:24.271Z,108.10
2018-06-22T08:38:24.187Z,105.30
2018-06-22T08:39:24.194Z,105.90
2018-06-22T08:40:24.207Z,106.20
2018-06-22T08:41:24.220Z,102.30
2018-06-22T08:42:24.332Z,106.10
2018-06-22T08:43:24.255Z,109.20
2018-06-22T11:36:44.925Z,30.80
2018-06-22T12:41:17.014Z,37.20
2018-06-22T14:11:43.080Z,21.60
2018-06-22T14:27:43.443Z,17.40
2018-06-22T14:49:41.938Z,12.10
2018-06-22T15:15:30.839Z,11.20
2018-06-22T15:28:56.397Z,5.50
2018-06-22T16:21:52.649Z,3.10
2018-06-22T17:16:22.466Z,5.40
2018-06-22T17:46:12.191Z,4.10
2018-06-22T17:50:06.837Z,5.10
2018-06-22T18:18:50.839Z,4.30
2018-06-22T18:51:00.193Z,3.10
2018-06-22T19:17:32.468Z,3.60
2018-06-22T19:44:14.756Z,5.80
2018-06-22T19:52:23.999Z,6.30
2018-06-22T20:31:36.387Z,6.30
2018-06-22T20:32:33.477Z,6.30
2018-06-22T20:33:33.520Z,6.50
2018-06-22T20:34:33.537Z,7.10
2018-06-22T20:48:19.255Z,11.10
2018-06-22T21:02:06.499Z,7.20
2018-06-22T21:05:55.887Z,7.00
2018-06-22T21:42:39.060Z,15.20
2018-06-22T23:46:48.793Z,30.80
2018-06-22T23:49:57.680Z,32.70
2018-06-22T23:51:39.234Z,33.90
2018-06-22T23:54:06.738Z,34.30
2018-06-22T23:57:58.597Z,33.70
